Time;durP1;ratioP1;P1;durP2;ratioP2;P2;SDS_P1;SDS_P2;PMS_P1;PMS_P2;Temp;Humidity;BMP_temperature;BMP_pressure;BME280_temperature;BME280_humidity;BME280_pressure;Samples;Min_cycle;Max_cycle;Signal;HPM_P1;HPM_P2
2023/09/09 00:01:17;;;;;;;0.00;0.00;;;18.90;99.90;;;;;;5049564;28;20209;-72
2023/09/09 00:03:43;;;;;;;0.00;0.00;;;18.80;99.90;;;;;;5049620;28;20178;-73
2023/09/09 00:06:10;;;;;;;0.77;0.30;;;18.70;99.90;;;;;;5049491;28;20284;-72
2023/09/09 00:08:35;;;;;;;0.22;0.22;;;18.70;99.90;;;;;;5050260;28;20185;-73
2023/09/09 00:11:01;;;;;;;0.00;0.00;;;18.60;99.90;;;;;;5050247;28;20181;-74
2023/09/09 00:13:27;;;;;;;0.00;0.00;;;18.60;99.90;;;;;;5051103;28;20201;-71
2023/09/09 00:15:54;;;;;;;0.20;0.20;;;18.50;99.90;;;;;;5050372;28;20205;-71
2023/09/09 00:18:19;;;;;;;0.00;0.00;;;18.50;99.90;;;;;;5048776;28;20181;-71
2023/09/09 00:20:45;;;;;;;0.00;0.00;;;18.40;99.90;;;;;;5050116;28;20219;-71
2023/09/09 00:23:10;;;;;;;0.00;0.00;;;18.40;99.90;;;;;;5053381;28;20645;-71
2023/09/09 00:25:42;;;;;;;0.00;0.00;;;18.40;99.90;;;;;;5054131;28;20173;-71
2023/09/09 00:28:11;;;;;;;0.00;0.00;;;18.30;99.90;;;;;;5054003;28;20612;-72
2023/09/09 00:30:36;;;;;;;0.15;0.13;;;18.30;99.90;;;;;;5041644;28;20213;-71
2023/09/09 00:33:02;;;;;;;0.00;0.00;;;18.30;99.90;;;;;;5053653;28;20602;-71
2023/09/09 00:35:28;;;;;;;0.22;0.22;;;18.20;99.90;;;;;;5053767;28;20177;-72
2023/09/09 00:37:54;;;;;;;0.00;0.00;;;18.20;99.90;;;;;;5053975;28;20640;-71
2023/09/09 00:40:20;;;;;;;0.05;0.05;;;18.10;99.90;;;;;;5053727;28;20245;-71
2023/09/09 00:42:45;;;;;;;0.00;0.00;;;18.10;99.90;;;;;;5053351;28;20679;-71
2023/09/09 00:45:11;;;;;;;0.00;0.00;;;18.00;99.90;;;;;;5053502;28;20189;-72
2023/09/09 00:47:38;;;;;;;0.25;0.25;;;18.00;99.90;;;;;;5053880;28;20310;-72
2023/09/09 00:50:05;;;;;;;0.00;0.00;;;18.00;99.90;;;;;;5053883;28;20331;-71
2023/09/09 00:52:31;;;;;;;0.00;0.00;;;17.90;99.90;;;;;;5053997;28;20186;-71
2023/09/09 00:54:57;;;;;;;0.08;0.08;;;17.90;99.90;;;;;;5053928;28;20181;-71
2023/09/09 00:57:23;;;;;;;0.00;0.00;;;17.90;99.90;;;;;;5053115;28;20190;-72
2023/09/09 00:59:49;;;;;;;0.03;0.03;;;17.90;99.90;;;;;;5052104;28;20544;-71
2023/09/09 01:02:14;;;;;;;0.00;0.00;;;17.90;99.90;;;;;;5053121;28;20668;-72
2023/09/09 01:04:40;;;;;;;0.00;0.00;;;17.90;99.90;;;;;;5053460;28;20182;-72
2023/09/09 01:07:06;;;;;;;0.08;0.08;;;17.80;99.90;;;;;;5053296;28;20185;-71
2023/09/09 01:09:33;;;;;;;0.00;0.00;;;17.80;99.90;;;;;;5052769;28;20228;-71
2023/09/09 01:11:59;;;;;;;0.10;0.10;;;17.80;99.90;;;;;;5052962;28;20185;-71
2023/09/09 01:14:25;;;;;;;0.05;0.05;;;17.80;99.90;;;;;;5051589;28;20243;-72
2023/09/09 01:16:52;;;;;;;0.00;0.00;;;17.80;99.90;;;;;;5053127;28;20177;-72
2023/09/09 01:19:21;;;;;;;0.00;0.00;;;17.80;99.90;;;;;;5052927;28;20551;-72
2023/09/09 01:21:47;;;;;;;0.00;0.00;;;17.80;99.90;;;;;;5052799;28;20221;-72
2023/09/09 01:24:15;;;;;;;0.00;0.00;;;17.90;99.90;;;;;;5052904;28;20705;-72
2023/09/09 01:26:44;;;;;;;0.00;0.00;;;17.90;99.90;;;;;;5052901;28;20219;-72
2023/09/09 01:29:10;;;;;;;0.00;0.00;;;17.90;99.90;;;;;;5052638;28;20377;-72
2023/09/09 01:31:36;;;;;;;0.10;0.10;;;17.90;99.90;;;;;;5052267;28;20296;-72
2023/09/09 01:34:02;;;;;;;0.00;0.00;;;17.80;99.90;;;;;;5052527;28;20188;-72
2023/09/09 01:36:28;;;;;;;0.20;0.20;;;17.80;99.90;;;;;;5052793;28;20170;-72
2023/09/09 01:38:53;;;;;;;0.00;0.00;;;17.80;99.90;;;;;;5053013;28;20181;-72
2023/09/09 01:41:19;;;;;;;0.00;0.00;;;17.70;99.90;;;;;;5052498;28;20221;-72
2023/09/09 01:43:44;;;;;;;0.00;0.00;;;17.70;99.90;;;;;;5052219;28;20672;-72
2023/09/09 01:46:10;;;;;;;0.00;0.00;;;17.70;99.90;;;;;;5052508;28;20640;-72
2023/09/09 01:48:36;;;;;;;0.30;0.30;;;17.60;99.90;;;;;;5052894;28;20699;-72
2023/09/09 01:51:02;;;;;;;0.00;0.00;;;17.60;99.90;;;;;;5052616;28;20217;-72
2023/09/09 01:53:28;;;;;;;0.00;0.00;;;17.60;99.90;;;;;;5052623;28;20267;-72
2023/09/09 01:55:56;;;;;;;0.00;0.00;;;17.60;99.90;;;;;;5052737;28;20268;-72
2023/09/09 01:58:21;;;;;;;0.00;0.00;;;17.50;99.90;;;;;;5046906;28;20170;-72
2023/09/09 02:00:47;;;;;;;0.00;0.00;;;17.50;99.90;;;;;;5045597;28;20219;-71
2023/09/09 02:03:13;;;;;;;0.00;0.00;;;17.50;99.90;;;;;;5067356;28;20230;-72
2023/09/09 02:05:39;;;;;;;0.00;0.00;;;17.50;99.90;;;;;;5051936;28;20587;-72
2023/09/09 02:08:05;;;;;;;0.00;0.00;;;17.40;99.90;;;;;;5052265;28;20253;-73
2023/09/09 02:10:30;;;;;;;0.00;0.00;;;17.40;99.90;;;;;;5052229;28;20183;-73
2023/09/09 02:12:56;;;;;;;0.00;0.00;;;17.30;99.90;;;;;;5051107;28;20276;-71
2023/09/09 02:15:21;;;;;;;0.10;0.10;;;17.30;99.90;;;;;;5051619;28;20196;-72
2023/09/09 02:17:47;;;;;;;0.00;0.00;;;17.20;99.90;;;;;;5051602;28;20239;-72
2023/09/09 02:20:13;;;;;;;0.00;0.00;;;17.20;99.90;;;;;;5051415;28;20205;-72
2023/09/09 02:22:38;;;;;;;0.03;0.03;;;17.20;99.90;;;;;;5051696;28;20197;-71
2023/09/09 02:25:04;;;;;;;0.00;0.00;;;17.10;99.90;;;;;;5051148;28;20608;-71
2023/09/09 02:27:30;;;;;;;0.10;0.10;;;17.10;99.90;;;;;;5051680;28;20182;-71
2023/09/09 02:29:55;;;;;;;0.00;0.00;;;17.10;99.90;;;;;;5051047;28;20208;-71
2023/09/09 02:32:21;;;;;;;0.00;0.00;;;17.10;99.90;;;;;;5050765;28;20435;-72
2023/09/09 02:34:47;;;;;;;0.00;0.00;;;17.10;99.90;;;;;;5051430;28;20201;-71
2023/09/09 02:37:17;;;;;;;0.00;0.00;;;17.10;99.90;;;;;;5051313;28;20641;-71
2023/09/09 02:39:44;;;;;;;0.00;0.00;;;17.10;99.90;;;;;;5050927;28;20178;-72
2023/09/09 02:42:16;;;;;;;0.00;0.00;;;17.00;99.90;;;;;;5050984;28;20181;-72
2023/09/09 02:44:42;;;;;;;0.03;0.03;;;17.00;99.90;;;;;;5050522;28;20710;-71
2023/09/09 02:47:09;;;;;;;0.00;0.00;;;17.00;99.90;;;;;;5051385;28;20189;-72
2023/09/09 02:49:39;;;;;;;0.00;0.00;;;17.00;99.90;;;;;;5051421;28;20181;-72
2023/09/09 02:52:06;;;;;;;0.00;0.00;;;17.00;99.90;;;;;;5051045;28;20613;-71
2023/09/09 02:54:34;;;;;;;0.00;0.00;;;17.00;99.90;;;;;;5035886;28;20177;-71
2023/09/09 02:57:00;;;;;;;0.10;0.10;;;17.00;99.90;;;;;;5051322;28;20182;-72
2023/09/09 02:59:26;;;;;;;0.10;0.10;;;16.90;99.90;;;;;;5047811;28;20587;-71
2023/09/09 03:01:51;;;;;;;0.00;0.00;;;16.90;99.90;;;;;;5051213;28;20217;-72
2023/09/09 03:04:18;;;;;;;0.05;0.05;;;16.80;99.90;;;;;;5050889;28;20235;-72
2023/09/09 03:06:45;;;;;;;0.30;0.30;;;16.80;99.90;;;;;;5051130;28;20189;-72
2023/09/09 03:09:11;;;;;;;0.00;0.00;;;16.80;99.90;;;;;;5051108;28;20174;-72
2023/09/09 03:11:36;;;;;;;0.10;0.05;;;16.80;99.90;;;;;;5051190;28;20186;-72
2023/09/09 03:14:02;;;;;;;0.00;0.00;;;16.80;99.90;;;;;;5049791;28;20276;-72
2023/09/09 03:16:27;;;;;;;0.00;0.00;;;16.80;99.90;;;;;;5050954;28;20288;-73
2023/09/09 03:18:53;;;;;;;0.10;0.10;;;16.70;99.90;;;;;;5051129;28;20316;-73
2023/09/09 03:21:18;;;;;;;0.13;0.13;;;16.70;99.90;;;;;;5050775;28;20256;-72
2023/09/09 03:23:44;;;;;;;0.00;0.00;;;16.70;99.90;;;;;;5049547;28;20264;-72
2023/09/09 03:26:10;;;;;;;0.00;0.00;;;16.70;99.90;;;;;;5050341;28;20188;-72
2023/09/09 03:28:35;;;;;;;0.00;0.00;;;16.70;99.90;;;;;;5050245;28;20185;-72
2023/09/09 03:31:01;;;;;;;0.00;0.00;;;16.70;99.90;;;;;;5050345;28;20217;-72
2023/09/09 03:33:27;;;;;;;0.00;0.00;;;16.80;99.90;;;;;;5050489;28;20196;-73
2023/09/09 03:35:53;;;;;;;0.00;0.00;;;16.70;99.90;;;;;;5050746;28;20185;-73
2023/09/09 03:38:19;;;;;;;0.17;0.17;;;16.70;99.90;;;;;;5048959;28;20188;-73
2023/09/09 03:40:44;;;;;;;0.30;0.30;;;16.70;99.90;;;;;;5050616;28;20213;-72
2023/09/09 03:43:11;;;;;;;0.00;0.00;;;16.70;99.90;;;;;;5050332;28;20200;-72
2023/09/09 03:45:37;;;;;;;0.00;0.00;;;16.70;99.90;;;;;;5050657;28;20200;-72
2023/09/09 03:48:06;;;;;;;0.00;0.00;;;16.60;99.90;;;;;;5050864;28;20258;-72
2023/09/09 03:50:33;;;;;;;0.00;0.00;;;16.60;99.90;;;;;;5050559;28;20681;-72
2023/09/09 03:52:59;;;;;;;0.10;0.10;;;16.50;99.90;;;;;;5050577;28;20189;-72
2023/09/09 03:55:25;;;;;;;0.00;0.00;;;16.50;99.90;;;;;;5050488;28;20273;-72
2023/09/09 03:57:51;;;;;;;0.00;0.00;;;16.40;99.90;;;;;;5046123;28;20185;-72
2023/09/09 04:00:17;;;;;;;0.17;0.17;;;16.40;99.90;;;;;;5051620;28;20209;-72
2023/09/09 04:02:43;;;;;;;0.00;0.00;;;16.40;99.90;;;;;;5054570;28;20269;-72
2023/09/09 04:05:09;;;;;;;0.00;0.00;;;16.30;99.90;;;;;;5054480;28;20185;-73
2023/09/09 04:07:36;;;;;;;0.00;0.00;;;16.30;99.90;;;;;;5054479;28;20207;-72
2023/09/09 04:10:05;;;;;;;0.00;0.00;;;16.30;99.90;;;;;;5053802;28;20186;-72
2023/09/09 04:12:31;;;;;;;0.32;0.32;;;16.30;99.90;;;;;;5054289;28;20185;-72
2023/09/09 04:14:57;;;;;;;0.10;0.10;;;16.20;99.90;;;;;;5054013;28;20182;-72
2023/09/09 04:17:22;;;;;;;0.00;0.00;;;16.20;99.90;;;;;;5053806;28;20193;-71
2023/09/09 04:19:48;;;;;;;0.00;0.00;;;16.20;99.90;;;;;;5054075;28;20177;-71
2023/09/09 04:22:13;;;;;;;0.10;0.10;;;16.20;99.90;;;;;;5051906;28;20185;-71
2023/09/09 04:24:39;;;;;;;0.00;0.00;;;16.20;99.90;;;;;;5054068;28;20250;-71
2023/09/09 04:27:05;;;;;;;0.00;0.00;;;16.20;99.90;;;;;;5054074;28;20213;-71
2023/09/09 04:29:30;;;;;;;0.00;0.00;;;16.10;99.90;;;;;;5053270;28;20258;-71
2023/09/09 04:31:56;;;;;;;0.00;0.00;;;16.20;99.90;;;;;;5053877;28;20247;-71
2023/09/09 04:34:21;;;;;;;0.10;0.10;;;16.10;99.90;;;;;;5053087;28;20177;-70
2023/09/09 04:36:47;;;;;;;0.00;0.00;;;16.10;99.90;;;;;;5053734;28;20196;-71
2023/09/09 04:39:13;;;;;;;0.00;0.00;;;16.10;99.90;;;;;;5053193;28;20239;-71
2023/09/09 04:41:40;;;;;;;0.00;0.00;;;16.10;99.90;;;;;;5053841;28;20271;-71
2023/09/09 04:44:05;;;;;;;0.00;0.00;;;16.10;99.90;;;;;;5052935;28;20173;-72
2023/09/09 04:46:31;;;;;;;0.00;0.00;;;16.10;99.90;;;;;;5053760;28;20196;-71
2023/09/09 04:48:56;;;;;;;0.00;0.00;;;16.10;99.90;;;;;;5053483;28;20629;-70
2023/09/09 04:51:22;;;;;;;0.00;0.00;;;16.10;99.90;;;;;;5053727;28;20189;-71
2023/09/09 04:53:48;;;;;;;0.00;0.00;;;16.00;99.90;;;;;;5051927;28;20202;-69
2023/09/09 04:56:14;;;;;;;0.00;0.00;;;16.00;99.90;;;;;;5053712;28;20192;-75
2023/09/09 04:58:40;;;;;;;0.20;0.20;;;16.00;99.90;;;;;;5046149;28;20272;-73
2023/09/09 05:01:05;;;;;;;0.00;0.00;;;16.00;99.90;;;;;;5051860;28;20299;-75
2023/09/09 05:03:31;;;;;;;0.05;0.05;;;16.00;99.90;;;;;;5054813;28;20176;-74
2023/09/09 05:05:56;;;;;;;0.00;0.00;;;15.90;99.90;;;;;;5052200;28;20223;-73
2023/09/09 05:08:22;;;;;;;0.13;0.13;;;15.90;99.90;;;;;;5052369;28;20239;-74
2023/09/09 05:10:47;;;;;;;0.00;0.00;;;16.00;99.90;;;;;;5052932;28;20219;-73
2023/09/09 05:13:13;;;;;;;0.20;0.17;;;16.00;99.90;;;;;;5053640;28;20192;-74
2023/09/09 05:15:38;;;;;;;0.00;0.00;;;16.00;99.90;;;;;;5053349;28;20641;-74
2023/09/09 05:18:04;;;;;;;0.25;0.25;;;16.00;99.90;;;;;;5052584;28;20189;-74
2023/09/09 05:20:30;;;;;;;0.00;0.00;;;16.00;99.90;;;;;;5053112;28;20213;-72
2023/09/09 05:22:55;;;;;;;0.10;0.10;;;16.00;99.90;;;;;;5053070;28;20169;-75
2023/09/09 05:25:21;;;;;;;0.10;0.10;;;16.10;99.90;;;;;;5052629;28;20694;-76
2023/09/09 05:27:47;;;;;;;0.00;0.00;;;16.10;99.90;;;;;;5052613;28;20186;-78
2023/09/09 05:30:12;;;;;;;0.00;0.00;;;16.10;99.90;;;;;;5053002;28;20503;-78
2023/09/09 05:32:38;;;;;;;0.00;0.00;;;16.20;99.90;;;;;;5052961;28;20228;-81
2023/09/09 05:35:06;;;;;;;0.00;0.00;;;16.30;99.90;;;;;;5051899;28;20253;-76
2023/09/09 05:37:32;;;;;;;0.00;0.00;;;16.30;99.90;;;;;;5053418;28;20187;-66
2023/09/09 05:39:57;;;;;;;0.00;0.00;;;16.40;99.90;;;;;;5052070;28;20192;-68
2023/09/09 05:42:23;;;;;;;0.00;0.00;;;16.40;99.90;;;;;;5053143;28;20641;-68
2023/09/09 05:44:49;;;;;;;0.00;0.00;;;16.30;99.90;;;;;;5053159;28;20257;-68
2023/09/09 05:47:14;;;;;;;0.13;0.13;;;16.40;99.90;;;;;;5053257;28;20806;-69
2023/09/09 05:49:40;;;;;;;0.10;0.10;;;16.50;99.90;;;;;;5053188;28;20254;-67
2023/09/09 05:52:05;;;;;;;0.00;0.00;;;16.50;99.90;;;;;;5052666;28;20240;-68
2023/09/09 05:54:31;;;;;;;0.00;0.00;;;16.60;99.90;;;;;;5052438;28;20193;-68
2023/09/09 05:56:57;;;;;;;0.13;0.13;;;16.60;99.90;;;;;;5053031;28;20170;-69
2023/09/09 05:59:23;;;;;;;0.00;0.00;;;16.70;99.90;;;;;;5052880;28;20166;-70
2023/09/09 06:01:48;;;;;;;0.00;0.00;;;16.80;99.90;;;;;;5052946;28;20220;-73
2023/09/09 06:04:15;;;;;;;0.00;0.00;;;17.10;99.90;;;;;;5052853;28;20184;-72
2023/09/09 06:06:43;;;;;;;0.00;0.00;;;17.40;99.90;;;;;;5053683;28;20193;-74
2023/09/09 06:09:09;;;;;;;0.00;0.00;;;17.80;99.90;;;;;;5052659;28;20541;-72
2023/09/09 06:11:34;;;;;;;0.00;0.00;;;18.30;99.90;;;;;;5052833;28;20188;-71
2023/09/09 06:14:00;;;;;;;0.00;0.00;;;18.80;99.90;;;;;;5052745;28;20173;-80
2023/09/09 06:16:25;;;;;;;0.10;0.10;;;19.40;99.90;;;;;;5051025;28;20189;-74
2023/09/09 06:18:51;;;;;;;0.00;0.00;;;19.90;99.90;;;;;;5052178;28;20197;-75
2023/09/09 06:21:16;;;;;;;0.00;0.00;;;20.40;99.90;;;;;;5051579;28;20296;-69
2023/09/09 06:23:42;;;;;;;0.00;0.00;;;20.90;99.90;;;;;;5054454;28;20204;-71
2023/09/09 06:26:07;;;;;;;0.00;0.00;;;21.30;99.90;;;;;;5052762;28;20186;-69
2023/09/09 06:28:34;;;;;;;0.00;0.00;;;21.80;99.90;;;;;;5052139;28;20174;-67
2023/09/09 06:30:59;;;;;;;0.00;0.00;;;22.20;99.90;;;;;;5051823;28;20221;-66
2023/09/09 06:33:25;;;;;;;0.00;0.00;;;22.50;99.90;;;;;;5051755;28;20260;-67
2023/09/09 06:35:51;;;;;;;0.00;0.00;;;22.90;99.90;;;;;;5051180;28;20174;-66
2023/09/09 06:38:16;;;;;;;0.30;0.30;;;23.30;99.90;;;;;;5051398;28;20672;-68
2023/09/09 06:40:46;;;;;;;0.00;0.00;;;23.80;99.90;;;;;;5051156;28;20311;-71
2023/09/09 06:43:12;;;;;;;0.00;0.00;;;24.20;99.90;;;;;;5051626;28;20188;-73
2023/09/09 06:45:38;;;;;;;0.10;0.00;;;24.60;99.90;;;;;;5051359;28;20180;-73
2023/09/09 06:48:04;;;;;;;0.00;0.00;;;25.00;99.90;;;;;;5051465;28;20209;-71
2023/09/09 06:50:30;;;;;;;0.00;0.00;;;25.30;99.30;;;;;;5051337;28;20621;-69
2023/09/09 06:52:55;;;;;;;0.32;0.32;;;25.60;98.60;;;;;;5050752;28;20189;-71
2023/09/09 06:55:21;;;;;;;0.00;0.00;;;25.90;98.50;;;;;;5051200;28;21062;-71
2023/09/09 06:57:46;;;;;;;0.00;0.00;;;26.20;98.00;;;;;;5050857;28;20257;-69
2023/09/09 07:00:13;;;;;;;0.00;0.00;;;26.60;97.60;;;;;;5050994;28;20206;-70
2023/09/09 07:02:40;;;;;;;0.00;0.00;;;26.90;97.00;;;;;;5051471;28;20654;-69
2023/09/09 07:05:06;;;;;;;0.00;0.00;;;27.30;96.40;;;;;;5051283;28;20181;-68
2023/09/09 07:07:32;;;;;;;0.00;0.00;;;27.70;95.80;;;;;;5050916;28;20199;-67
2023/09/09 07:09:57;;;;;;;0.28;0.10;;;28.10;94.70;;;;;;5051593;28;20696;-66
2023/09/09 07:12:23;;;;;;;0.00;0.00;;;28.30;94.30;;;;;;5051432;28;20631;-67
2023/09/09 07:14:48;;;;;;;0.00;0.00;;;28.50;94.00;;;;;;5051295;28;20221;-67
2023/09/09 07:17:14;;;;;;;0.30;0.28;;;28.80;93.40;;;;;;5051573;28;20208;-67
2023/09/09 07:19:40;;;;;;;0.00;0.00;;;29.10;93.00;;;;;;5051698;28;20184;-67
2023/09/09 07:22:06;;;;;;;0.00;0.00;;;29.40;92.30;;;;;;5051647;28;20205;-67
2023/09/09 07:24:32;;;;;;;0.10;0.10;;;29.70;91.60;;;;;;5051723;28;20169;-67
2023/09/09 07:26:59;;;;;;;0.08;0.08;;;29.80;91.20;;;;;;5051388;28;20540;-67
2023/09/09 07:29:25;;;;;;;0.20;0.20;;;29.90;90.90;;;;;;5051712;28;20177;-67
2023/09/09 07:31:50;;;;;;;0.00;0.00;;;30.20;90.10;;;;;;5051151;28;20572;-67
2023/09/09 07:34:16;;;;;;;0.00;0.00;;;30.50;88.90;;;;;;5051162;28;20664;-67
2023/09/09 07:36:41;;;;;;;0.00;0.00;;;30.60;88.50;;;;;;5051408;28;20188;-67
2023/09/09 07:39:07;;;;;;;0.00;0.00;;;30.80;88.00;;;;;;5051290;28;20181;-67
2023/09/09 07:41:33;;;;;;;0.00;0.00;;;31.00;87.40;;;;;;5051448;28;20321;-67
2023/09/09 07:43:58;;;;;;;0.00;0.00;;;31.20;87.10;;;;;;5050250;28;20260;-67
2023/09/09 07:46:24;;;;;;;0.08;0.08;;;31.30;84.20;;;;;;5051196;28;20185;-67
2023/09/09 07:48:49;;;;;;;0.00;0.00;;;31.60;83.70;;;;;;5050652;28;20672;-67
2023/09/09 07:51:15;;;;;;;0.00;0.00;;;31.80;83.30;;;;;;5051350;28;20235;-67
2023/09/09 07:53:40;;;;;;;0.00;0.00;;;32.00;82.10;;;;;;5049968;28;20192;-68
2023/09/09 07:56:06;;;;;;;0.03;0.03;;;32.10;80.70;;;;;;5051269;28;20182;-68
2023/09/09 07:58:31;;;;;;;0.00;0.00;;;32.20;80.10;;;;;;5051156;28;20168;-69
2023/09/09 08:00:58;;;;;;;0.00;0.00;;;32.40;79.70;;;;;;5051254;28;20216;-67
2023/09/09 08:03:24;;;;;;;0.00;0.00;;;32.60;78.00;;;;;;5051168;28;20621;-67
2023/09/09 08:05:54;;;;;;;0.00;0.00;;;32.70;78.30;;;;;;5051151;28;20177;-67
2023/09/09 08:08:19;;;;;;;0.00;0.00;;;32.30;76.40;;;;;;5049206;28;20181;-67
2023/09/09 08:10:45;;;;;;;0.00;0.00;;;32.30;78.70;;;;;;5050935;28;20191;-67
2023/09/09 08:13:11;;;;;;;0.25;0.22;;;32.50;79.10;;;;;;5050863;28;20267;-67
2023/09/09 08:15:36;;;;;;;0.00;0.00;;;32.80;77.60;;;;;;5051210;28;20173;-67
2023/09/09 08:18:02;;;;;;;0.00;0.00;;;32.80;75.60;;;;;;5050956;28;20177;-68
2023/09/09 08:20:28;;;;;;;0.00;0.00;;;33.00;77.30;;;;;;5050799;28;20660;-67
2023/09/09 08:22:53;;;;;;;0.15;0.10;;;33.10;75.60;;;;;;5051177;28;20275;-67
2023/09/09 08:25:19;;;;;;;0.00;0.00;;;33.30;74.50;;;;;;5051077;28;20632;-68
2023/09/09 08:27:45;;;;;;;0.00;0.00;;;33.30;74.10;;;;;;5050922;28;20177;-68
2023/09/09 08:30:11;;;;;;;0.20;0.20;;;33.40;73.60;;;;;;5050739;28;20176;-67
2023/09/09 08:32:36;;;;;;;0.10;0.10;;;33.50;74.10;;;;;;5050960;28;20225;-67
2023/09/09 08:35:02;;;;;;;0.00;0.00;;;33.60;72.90;;;;;;5050872;28;20174;-67
2023/09/09 08:37:27;;;;;;;0.00;0.00;;;33.60;73.70;;;;;;5049743;28;20185;-67
2023/09/09 08:39:54;;;;;;;0.00;0.00;;;33.70;73.80;;;;;;5050892;28;20165;-67
2023/09/09 08:42:42;;;;;;;0.00;0.00;;;34.00;70.90;;;;;;5051045;28;20181;-67
2023/09/09 08:45:28;;;;;;;0.00;0.00;;;34.20;72.10;;;;;;5054358;28;20188;-68
2023/09/09 08:47:57;;;;;;;0.00;0.00;;;34.40;70.70;;;;;;5054516;28;20636;-68
2023/09/09 08:50:25;;;;;;;0.00;0.00;;;34.50;70.30;;;;;;5054523;28;20177;-67
2023/09/09 08:52:53;;;;;;;0.00;0.00;;;34.20;70.10;;;;;;5054446;28;20636;-68
2023/09/09 08:55:19;;;;;;;0.00;0.00;;;34.10;69.80;;;;;;5052886;28;20184;-68
2023/09/09 08:57:45;;;;;;;0.00;0.00;;;34.00;70.30;;;;;;5054344;28;20239;-67
2023/09/09 09:00:13;;;;;;;0.00;0.00;;;34.00;69.90;;;;;;5054071;28;20545;-67
2023/09/09 09:02:39;;;;;;;0.00;0.00;;;34.00;70.30;;;;;;5054315;28;20519;-67
2023/09/09 09:05:05;;;;;;;0.00;0.00;;;34.20;70.20;;;;;;5054006;28;20719;-67
2023/09/09 09:07:34;;;;;;;0.00;0.00;;;34.30;69.90;;;;;;5054160;28;20187;-68
2023/09/09 09:10:00;;;;;;;0.00;0.00;;;34.00;69.20;;;;;;5053968;28;20235;-68
2023/09/09 09:12:28;;;;;;;0.10;0.08;;;33.70;70.00;;;;;;5054078;28;20644;-68
2023/09/09 09:14:53;;;;;;;0.03;0.03;;;33.80;70.10;;;;;;5054009;28;20176;-68
2023/09/09 09:17:19;;;;;;;0.10;0.10;;;33.90;70.20;;;;;;5053990;28;20524;-68
2023/09/09 09:19:45;;;;;;;0.00;0.00;;;34.00;69.10;;;;;;5053955;28;20227;-68
2023/09/09 09:22:13;;;;;;;0.00;0.00;;;34.10;69.00;;;;;;5053731;28;20217;-67
2023/09/09 09:24:43;;;;;;;0.00;0.00;;;34.20;69.50;;;;;;5053906;28;20188;-67
2023/09/09 09:27:13;;;;;;;0.00;0.00;;;34.20;67.80;;;;;;5053441;28;20173;-68
2023/09/09 09:29:45;;;;;;;0.00;0.00;;;34.20;67.30;;;;;;5052218;28;20259;-68
2023/09/09 09:32:10;;;;;;;0.00;0.00;;;34.40;66.10;;;;;;5053350;28;20220;-68
2023/09/09 09:34:36;;;;;;;0.00;0.00;;;34.30;66.20;;;;;;5053708;28;20535;-68
2023/09/09 09:37:11;;;;;;;0.00;0.00;;;34.30;66.50;;;;;;5053509;28;20188;-67
2023/09/09 09:39:38;;;;;;;0.00;0.00;;;34.20;66.20;;;;;;5053643;28;20176;-68
2023/09/09 09:42:04;;;;;;;0.00;0.00;;;34.00;67.20;;;;;;5052147;28;20225;-68
2023/09/09 09:44:29;;;;;;;0.00;0.00;;;33.90;67.80;;;;;;5053366;28;20263;-67
2023/09/09 09:47:05;;;;;;;0.00;0.00;;;34.00;67.40;;;;;;5053426;28;20565;-68
2023/09/09 09:49:41;;;;;;;0.00;0.00;;;33.80;67.20;;;;;;5053542;28;20271;-68
2023/09/09 09:52:08;;;;;;;0.00;0.00;;;33.40;69.20;;;;;;5053233;28;20176;-68
2023/09/09 09:54:35;;;;;;;0.10;0.10;;;33.40;69.40;;;;;;5053106;28;20196;-68
2023/09/09 09:57:04;;;;;;;0.00;0.00;;;33.40;69.40;;;;;;5053159;28;20311;-68
2023/09/09 09:59:32;;;;;;;0.10;0.10;;;33.60;68.20;;;;;;5053035;28;20506;-68
2023/09/09 10:01:59;;;;;;;0.00;0.00;;;33.80;68.30;;;;;;5053093;28;20221;-68
2023/09/09 10:04:30;;;;;;;0.00;0.00;;;34.10;68.20;;;;;;5053000;28;20181;-67
2023/09/09 10:07:00;;;;;;;0.10;0.10;;;34.20;70.00;;;;;;5053059;28;20183;-67
2023/09/09 10:09:44;;;;;;;0.10;0.10;;;34.20;68.20;;;;;;5052924;28;20173;-67
2023/09/09 10:12:19;;;;;;;0.00;0.00;;;33.90;65.90;;;;;;5052808;28;20538;-67
2023/09/09 10:14:45;;;;;;;0.00;0.00;;;33.80;66.30;;;;;;5052927;28;20572;-68
2023/09/09 10:17:14;;;;;;;0.00;0.00;;;33.80;66.50;;;;;;5052721;28;20177;-68
2023/09/09 10:19:41;;;;;;;0.10;0.10;;;33.80;65.10;;;;;;5052785;28;20192;-67
2023/09/09 10:22:07;;;;;;;0.10;0.10;;;33.70;65.30;;;;;;5052590;28;20292;-68
2023/09/09 10:24:37;;;;;;;0.00;0.00;;;33.60;67.20;;;;;;5052640;28;20712;-68
2023/09/09 10:27:03;;;;;;;0.10;0.10;;;33.50;68.00;;;;;;5052589;28;20192;-68
2023/09/09 10:29:34;;;;;;;0.05;0.05;;;33.70;69.20;;;;;;5052519;28;20179;-68
2023/09/09 10:32:02;;;;;;;0.00;0.00;;;33.90;67.80;;;;;;5052357;28;20232;-68
2023/09/09 10:34:30;;;;;;;0.10;0.10;;;34.20;66.50;;;;;;5052442;28;20559;-68
2023/09/09 10:36:58;;;;;;;0.13;0.13;;;34.30;64.80;;;;;;5052370;28;20181;-68
2023/09/09 10:39:24;;;;;;;0.00;0.00;;;34.50;65.00;;;;;;5052315;28;20601;-68
2023/09/09 10:41:51;;;;;;;0.00;0.00;;;34.70;65.40;;;;;;5052373;28;20711;-68
2023/09/09 10:44:16;;;;;;;0.10;0.10;;;34.80;62.90;;;;;;5052417;28;20181;-68
2023/09/09 10:46:42;;;;;;;0.05;0.05;;;34.80;61.60;;;;;;5052253;28;20184;-67
2023/09/09 10:49:07;;;;;;;0.00;0.00;;;34.90;60.30;;;;;;5052049;28;20176;-68
2023/09/09 10:51:49;;;;;;;0.00;0.00;;;34.80;58.60;;;;;;5050859;28;20535;-68
2023/09/09 10:54:17;;;;;;;0.03;0.03;;;34.90;57.90;;;;;;5051968;28;20188;-68
2023/09/09 10:56:50;;;;;;;0.00;0.00;;;34.80;57.30;;;;;;5052119;28;20180;-68
2023/09/09 10:59:18;;;;;;;0.10;0.10;;;35.00;56.90;;;;;;5050955;28;20527;-68
2023/09/09 11:01:44;;;;;;;0.00;0.00;;;35.20;57.10;;;;;;5051937;28;20555;-67
2023/09/09 11:04:20;;;;;;;0.00;0.00;;;35.20;58.10;;;;;;5051688;28;20190;-67
2023/09/09 11:07:06;;;;;;;0.00;0.00;;;35.30;56.90;;;;;;5051317;28;20187;-68
2023/09/09 11:09:32;;;;;;;0.00;0.00;;;35.30;57.20;;;;;;5051816;28;20184;-68
2023/09/09 11:11:57;;;;;;;0.00;0.00;;;35.20;57.60;;;;;;5051891;28;20169;-68
2023/09/09 11:14:29;;;;;;;0.28;0.10;;;35.10;58.30;;;;;;5051770;28;20229;-68
2023/09/09 11:16:54;;;;;;;0.00;0.00;;;35.20;59.00;;;;;;5051842;28;20192;-68
2023/09/09 11:19:23;;;;;;;0.10;0.10;;;35.40;58.60;;;;;;5051609;28;20570;-68
2023/09/09 11:21:50;;;;;;;0.00;0.00;;;35.50;58.60;;;;;;5051530;28;20221;-68
2023/09/09 11:24:17;;;;;;;0.00;0.00;;;35.40;58.50;;;;;;5051604;28;20173;-68
2023/09/09 11:26:44;;;;;;;0.10;0.00;;;35.40;58.20;;;;;;5051586;28;20615;-68
2023/09/09 11:29:10;;;;;;;0.00;0.00;;;35.20;58.20;;;;;;5051547;28;20537;-68
2023/09/09 11:31:36;;;;;;;0.00;0.00;;;34.90;57.90;;;;;;5051431;28;20233;-68
2023/09/09 11:34:01;;;;;;;0.00;0.00;;;34.70;58.50;;;;;;5051550;28;20204;-68
2023/09/09 11:36:29;;;;;;;0.08;0.08;;;34.80;59.70;;;;;;5051471;28;20180;-68
2023/09/09 11:39:03;;;;;;;0.00;0.00;;;34.90;61.70;;;;;;5051613;28;20248;-68
2023/09/09 11:41:30;;;;;;;0.00;0.00;;;34.80;60.50;;;;;;5050985;28;20208;-68
2023/09/09 11:44:03;;;;;;;0.00;0.00;;;34.80;59.70;;;;;;5051315;28;20196;-68
2023/09/09 11:46:35;;;;;;;0.00;0.00;;;34.90;60.40;;;;;;5051430;28;20177;-68
2023/09/09 11:49:01;;;;;;;0.00;0.00;;;34.90;58.20;;;;;;5051072;28;20181;-69
2023/09/09 11:51:27;;;;;;;0.00;0.00;;;34.90;58.20;;;;;;5051391;28;20176;-69
2023/09/09 11:53:52;;;;;;;0.00;0.00;;;34.60;58.00;;;;;;5051350;28;20185;-69
2023/09/09 11:56:19;;;;;;;0.03;0.03;;;34.40;59.10;;;;;;5051393;28;20169;-69
2023/09/09 11:58:45;;;;;;;0.00;0.00;;;34.50;59.60;;;;;;5051249;28;20249;-69
2023/09/09 12:01:12;;;;;;;0.00;0.00;;;34.80;58.60;;;;;;5051155;28;20224;-69
2023/09/09 12:03:38;;;;;;;0.00;0.00;;;35.00;58.30;;;;;;5051043;28;20177;-68
2023/09/09 12:06:07;;;;;;;0.03;0.03;;;35.10;57.60;;;;;;5051248;28;20711;-68
2023/09/09 12:08:33;;;;;;;0.00;0.00;;;34.90;58.80;;;;;;5049883;28;20703;-69
2023/09/09 12:11:00;;;;;;;0.00;0.00;;;34.50;58.70;;;;;;5051089;28;20640;-69
2023/09/09 12:13:26;;;;;;;0.10;0.10;;;34.30;60.50;;;;;;5051310;28;20181;-68
2023/09/09 12:15:52;;;;;;;0.00;0.00;;;34.20;60.20;;;;;;5050646;28;20181;-67
2023/09/09 12:18:17;;;;;;;0.00;0.00;;;34.40;60.00;;;;;;5052874;28;20589;-67
2023/09/09 12:21:02;;;;;;;0.00;0.00;;;34.30;59.80;;;;;;5054976;28;20205;-67
2023/09/09 12:23:28;;;;;;;0.00;0.00;;;34.40;59.90;;;;;;5054857;28;20249;-66
2023/09/09 12:25:54;;;;;;;0.00;0.00;;;34.40;60.00;;;;;;5054897;28;20259;-67
2023/09/09 12:28:19;;;;;;;0.00;0.00;;;34.40;59.40;;;;;;5054864;28;20576;-69
2023/09/09 12:30:45;;;;;;;0.00;0.00;;;34.50;59.90;;;;;;5054458;28;20277;-66
2023/09/09 12:33:12;;;;;;;0.00;0.00;;;34.50;59.90;;;;;;5054297;28;20176;-66
2023/09/09 12:35:42;;;;;;;0.00;0.00;;;34.30;60.30;;;;;;5054780;28;20181;-67
2023/09/09 12:38:10;;;;;;;0.00;0.00;;;34.40;59.90;;;;;;5054165;28;20225;-67
2023/09/09 12:41:02;;;;;;;0.00;0.00;;;34.40;60.50;;;;;;5054568;28;20215;-67
2023/09/09 12:43:28;;;;;;;0.10;0.10;;;34.40;59.60;;;;;;5054625;28;20203;-67
2023/09/09 12:46:03;;;;;;;0.17;0.17;;;34.30;59.70;;;;;;5054283;28;20172;-67